Airfield :
LOGIN :

Register | Disclaimer

   EN    FR    IT 

 










Legend :    VFR   Marginal VFR   IFR   Intensive IFR   Very Intensive IFR
Visi :
Ceiling :
>= 8 km
>= 3000ft
5 to 8 km
1000 to 3000 ft
1500m to 5 km
500 to 1000 ft
800 to 1500m
200 to 500 ft
< 800m
< 200 ft
Symbols :   Thunderstorms  Fog  Heavy snow  Heavy precipitations  Wind > 20 kt
SIGMETs :     Misc.  Thunderstorms  Icing  Turbulence  Mountain Waves  Volcanic Ashes






- Airport Elevation : 82 ft
- IATA code : AAR


EKAH - Aarhus Tirstrup

CURRENT METAR :
  • 031950Z 27001KT 9999 FEW031CB BKN110 18/14 Q1016

EXPIRED METARs :
  • 031920Z VRB01KT 9999 FEW057CB BKN100 19/15 Q1015
  • 031850Z AUTO 11003KT 9999 FEW068/// SCT130/// 19/15 Q1015
  • 031820Z AUTO 08002KT 9999 FEW140/// 19/14 Q1015
  • 030520Z AUTO 14004KT 100V190 9999 -RA BKN062/// 17/15 Q1017
  • 031750Z AUTO 09002KT 9999 FEW190/// 20/14 Q1015
  • 031720Z AUTO 13002KT 9999 NCD 20/13 Q1015

TAF TAF EKAH
Valid from the 03 at 18:00 until the 04 at 18:00 UTC


031706Z 0318/0418 17008KT 9999 SCT040
TEMPO 0318/0320 SHRA BKN040CB
TEMPO 0407/0418 SHRA SCT025CB



MET'MAP, your aeronautical weather chart ! - Copyright ORBIFLY December 2007 - Disclaimer

ORBIFLY MET'MAP TEAM :

Programming & Development : Alexandra Zaïnal
Original concept : Baudouin d'Aumeries
Technical & hardware support : Manuel Goepfert
Assistance : Marc-Olivier Méhu




SOURCES & CREDITS :

   NOAA